Time;durP1;ratioP1;P1;durP2;ratioP2;P2;SDS_P1;SDS_P2;PMS_P1;PMS_P2;Temp;Humidity;BMP_temperature;BMP_pressure;BME280_temperature;BME280_humidity;BME280_pressure;Samples;Min_cycle;Max_cycle;Signal;HPM_P1;HPM_P2
2023/05/06 00:02:29;;;;;;;14.05;2.08;;;;;;;10.01;46.85;100102.94;4871574;28;20057;-60
2023/05/06 00:05:02;;;;;;;3.35;1.63;;;;;;;9.94;47.82;100082.16;4874441;28;20096;-60
2023/05/06 00:07:32;;;;;;;10.63;1.90;;;;;;;10.02;45.08;100105.53;4873981;28;20076;-60
2023/05/06 00:10:06;;;;;;;8.52;2.05;;;;;;;9.74;45.81;100084.25;4866205;28;20859;-59
2023/05/06 00:12:37;;;;;;;6.25;1.73;;;;;;;9.97;47.19;100080.41;4865372;28;20060;-59
2023/05/06 00:15:11;;;;;;;4.60;1.75;;;;;;;9.91;41.37;100077.00;4856075;28;20129;-61
2023/05/06 00:17:42;;;;;;;10.90;2.10;;;;;;;9.81;41.71;100091.09;4859949;28;20590;-60
2023/05/06 00:20:13;;;;;;;3.63;1.80;;;;;;;10.00;43.95;100069.91;4854638;28;20393;-60
2023/05/06 00:22:44;;;;;;;13.05;2.28;;;;;;;10.15;43.15;100072.25;4865174;28;20063;-60
2023/05/06 00:25:16;;;;;;;7.40;2.00;;;;;;;10.09;41.48;100056.69;4848079;28;20149;-59
2023/05/06 00:27:46;;;;;;;6.68;1.80;;;;;;;9.89;41.64;100078.78;4854689;28;20061;-60
2023/05/06 00:30:17;;;;;;;5.10;2.10;;;;;;;9.93;43.54;100085.69;4864269;28;20042;-60
2023/05/06 00:32:47;;;;;;;2.38;1.65;;;;;;;9.40;42.66;100063.88;4871667;28;20506;-59
2023/05/06 00:35:18;;;;;;;3.38;1.85;;;;;;;9.44;43.82;100077.75;4871705;28;20154;-60
2023/05/06 00:37:56;;;;;;;7.90;2.47;;;;;;;9.20;44.62;100045.91;4876536;28;20191;-60
2023/05/06 00:40:28;;;;;;;6.50;2.00;;;;;;;9.79;44.19;100082.44;4849313;28;20043;-59
2023/05/06 00:42:59;;;;;;;7.47;1.70;;;;;;;10.11;43.39;100083.66;4856945;28;20049;-59
2023/05/06 00:45:29;;;;;;;3.58;1.85;;;;;;;10.15;42.90;100085.28;4866827;28;20053;-60
2023/05/06 00:48:00;;;;;;;9.90;2.25;;;;;;;10.41;42.95;100078.78;4866679;28;20064;-60
2023/05/06 00:50:32;;;;;;;4.93;2.17;;;;;;;10.62;43.41;100085.34;4864576;28;20057;-60
2023/05/06 00:53:04;;;;;;;13.95;2.30;;;;;;;10.68;42.08;100080.00;4864474;28;20061;-60
2023/05/06 00:55:37;;;;;;;7.03;1.92;;;;;;;10.70;40.65;100079.06;4849133;28;20064;-60
2023/05/06 00:58:07;;;;;;;3.40;1.80;;;;;;;10.29;40.45;100031.13;4862000;28;20065;-61
2023/05/06 01:00:39;;;;;;;15.15;2.75;;;;;;;10.49;41.56;100074.28;4868156;28;20050;-60
2023/05/06 01:03:09;;;;;;;9.88;2.20;;;;;;;10.53;40.45;100081.16;4866336;28;20056;-60
2023/05/06 01:05:52;;;;;;;4.50;1.90;;;;;;;10.45;39.17;100046.50;4875579;28;20145;-60
2023/05/06 01:08:30;;;;;;;5.32;1.80;;;;;;;10.78;40.08;100069.34;4852015;28;20099;-59
2023/05/06 01:11:10;;;;;;;7.18;2.25;;;;;;;11.05;38.48;100074.88;4843684;28;20057;-60
2023/05/06 01:13:49;;;;;;;3.42;1.80;;;;;;;10.78;38.17;100034.47;4856929;28;20041;-60
2023/05/06 01:16:24;;;;;;;9.32;1.85;;;;;;;11.03;38.87;100034.81;4854893;28;20060;-60
2023/05/06 01:18:56;;;;;;;4.35;1.80;;;;;;;11.51;38.28;100062.56;4855975;28;20505;-60
2023/05/06 01:21:33;;;;;;;5.63;2.10;;;;;;;11.45;38.27;100059.16;4862805;28;21659;-61
2023/05/06 01:24:06;;;;;;;7.35;1.98;;;;;;;11.18;38.88;100065.88;4865539;28;20054;-60
2023/05/06 01:26:41;;;;;;;5.68;1.88;;;;;;;11.39;39.37;100063.69;4855797;28;20073;-60
2023/05/06 01:29:15;;;;;;;9.57;1.90;;;;;;;11.20;38.73;100069.31;4863961;28;20046;-60
2023/05/06 01:31:51;;;;;;;7.38;1.80;;;;;;;11.04;38.37;100062.72;4863581;28;20061;-60
2023/05/06 01:34:28;;;;;;;3.78;1.88;;;;;;;10.98;37.83;100057.59;4854239;28;20065;-60
2023/05/06 01:37:08;;;;;;;4.10;1.90;;;;;;;10.71;37.14;100038.16;4853702;28;20054;-60
2023/05/06 01:39:42;;;;;;;3.77;1.67;;;;;;;10.49;37.25;100054.25;4853884;28;20058;-60
2023/05/06 01:42:14;;;;;;;3.63;1.77;;;;;;;10.71;37.76;100059.91;4863652;28;20284;-60
2023/05/06 01:44:45;;;;;;;5.38;1.95;;;;;;;11.09;38.55;100050.41;4863568;28;20481;-60
2023/05/06 01:47:17;;;;;;;4.63;1.63;;;;;;;11.48;38.56;100059.97;4866543;28;20049;-60
2023/05/06 01:49:49;;;;;;;7.55;2.10;;;;;;;11.53;37.33;100035.44;4853305;28;20059;-60
2023/05/06 01:52:21;;;;;;;4.20;1.75;;;;;;;11.76;36.66;100049.72;4848309;28;20054;-60
2023/05/06 01:54:53;;;;;;;4.75;1.88;;;;;;;11.53;35.98;100053.75;4847427;28;20069;-60
2023/05/06 01:57:23;;;;;;;5.20;1.98;;;;;;;11.21;36.68;100044.91;4846367;28;20430;-60
2023/05/06 01:59:54;;;;;;;2.83;1.67;;;;;;;11.01;37.15;100031.41;4840616;28;20434;-60
2023/05/06 02:02:25;;;;;;;3.45;1.70;;;;;;;10.99;37.58;100038.41;4852827;28;20050;-60
2023/05/06 02:04:55;;;;;;;3.95;2.00;;;;;;;11.02;37.79;100022.66;4844934;28;20050;-60
2023/05/06 02:07:26;;;;;;;2.72;1.55;;;;;;;10.84;37.98;100029.16;4845411;28;20072;-60
2023/05/06 02:09:58;;;;;;;2.67;1.80;;;;;;;10.71;38.71;100025.94;4847366;28;20050;-60
2023/05/06 02:12:29;;;;;;;3.90;1.90;;;;;;;10.75;38.20;100024.97;4836363;28;20107;-61
2023/05/06 02:14:59;;;;;;;2.42;1.50;;;;;;;10.91;37.83;100020.28;4846518;28;20057;-60
2023/05/06 02:17:30;;;;;;;11.20;1.95;;;;;;;10.74;38.35;100027.63;4847890;28;20053;-61
2023/05/06 02:20:00;;;;;;;2.58;1.60;;;;;;;10.69;37.72;100027.72;4849830;28;20046;-60
2023/05/06 02:22:31;;;;;;;6.10;1.55;;;;;;;10.55;38.48;99995.78;4849356;28;20062;-59
2023/05/06 02:25:03;;;;;;;1.80;1.60;;;;;;;10.83;38.55;100022.19;4864480;28;20046;-60
2023/05/06 02:27:33;;;;;;;2.83;1.80;;;;;;;10.92;37.95;100010.69;4849004;28;20469;-60
2023/05/06 02:30:04;;;;;;;2.63;1.60;;;;;;;11.24;37.16;100017.81;4849247;28;20541;-60
2023/05/06 02:32:34;;;;;;;7.55;1.63;;;;;;;11.56;37.92;100014.44;4848349;28;20060;-60
2023/05/06 02:35:06;;;;;;;5.57;1.90;;;;;;;11.66;37.52;100005.44;4843033;28;20054;-60
2023/05/06 02:37:37;;;;;;;3.90;1.55;;;;;;;11.94;36.91;100024.88;4849984;28;20092;-60
2023/05/06 02:40:10;;;;;;;4.53;1.90;;;;;;;11.94;36.62;100025.72;4845014;28;20540;-61
2023/05/06 02:42:40;;;;;;;7.88;1.77;;;;;;;11.86;37.32;100009.34;4841409;28;20061;-60
2023/05/06 02:45:12;;;;;;;5.32;2.10;;;;;;;11.82;36.33;100015.53;4836556;28;20065;-60
2023/05/06 02:47:42;;;;;;;4.30;1.80;;;;;;;11.60;37.05;100020.44;4851898;28;20049;-60
2023/05/06 02:50:13;;;;;;;3.60;1.70;;;;;;;11.50;37.35;100016.31;4853670;28;20049;-60
2023/05/06 02:52:47;;;;;;;3.28;1.90;;;;;;;11.29;37.25;100022.94;4847676;28;20860;-60
2023/05/06 02:55:19;;;;;;;4.57;1.73;;;;;;;10.95;37.10;100005.38;4845702;28;20051;-61
2023/05/06 02:57:49;;;;;;;4.63;1.75;;;;;;;10.86;38.79;100016.03;4848402;28;21461;-60
2023/05/06 03:00:20;;;;;;;5.82;1.60;;;;;;;10.77;38.54;100017.94;4847717;28;20136;-60
2023/05/06 03:02:51;;;;;;;4.53;2.00;;;;;;;10.87;38.04;100018.63;4847941;28;20060;-60
2023/05/06 03:05:22;;;;;;;3.95;1.83;;;;;;;10.76;38.23;100008.41;4846977;28;20057;-60
2023/05/06 03:07:52;;;;;;;10.63;2.10;;;;;;;11.05;39.25;100017.34;4839931;28;20054;-60
2023/05/06 03:10:25;;;;;;;8.73;1.90;;;;;;;11.22;38.80;100009.97;4849111;28;20073;-60
2023/05/06 03:12:55;;;;;;;7.72;2.17;;;;;;;11.42;39.47;100019.13;4831570;28;20046;-60
2023/05/06 03:15:26;;;;;;;5.53;2.03;;;;;;;11.47;38.22;100009.41;4846892;28;20058;-60
2023/05/06 03:17:56;;;;;;;7.15;1.88;;;;;;;11.50;38.11;99993.63;4847666;28;20453;-60
2023/05/06 03:20:27;;;;;;;4.78;1.52;;;;;;;11.80;37.81;100017.31;4846493;28;20224;-60
2023/05/06 03:22:58;;;;;;;4.35;2.00;;;;;;;12.02;39.03;100013.28;4846212;28;20222;-60
2023/05/06 03:25:30;;;;;;;8.10;2.15;;;;;;;11.95;36.38;100016.97;4860619;28;20085;-60
2023/05/06 03:28:00;;;;;;;3.20;1.65;;;;;;;11.59;37.26;100030.06;4860510;28;20115;-60
2023/05/06 03:30:31;;;;;;;3.60;1.40;;;;;;;11.41;37.49;100020.88;4848345;28;20455;-60
2023/05/06 03:33:02;;;;;;;2.55;1.50;;;;;;;11.27;37.92;100022.97;4847848;28;20050;-60
2023/05/06 03:35:33;;;;;;;3.67;1.90;;;;;;;11.11;38.40;100006.78;4847027;28;20073;-60
2023/05/06 03:38:03;;;;;;;7.60;2.13;;;;;;;11.04;39.52;100010.41;4846771;28;20115;-61
2023/05/06 03:40:36;;;;;;;2.90;1.92;;;;;;;10.91;38.06;100003.75;4846811;28;20058;-61
2023/05/06 03:43:06;;;;;;;7.22;2.03;;;;;;;10.83;38.98;100005.66;4842029;28;20467;-59
2023/05/06 03:45:37;;;;;;;2.35;1.40;;;;;;;10.68;38.94;100007.69;4829356;28;20082;-59
2023/05/06 03:48:08;;;;;;;4.55;1.98;;;;;;;10.69;38.82;100016.41;4839302;28;21571;-60
2023/05/06 03:50:39;;;;;;;29.45;3.25;;;;;;;10.94;40.25;100014.13;4848542;28;20464;-62
2023/05/06 03:53:09;;;;;;;13.80;1.88;;;;;;;10.98;39.35;100016.66;4837232;28;20054;-59
2023/05/06 03:55:42;;;;;;;8.23;2.00;;;;;;;10.69;39.76;99982.44;4847652;28;20066;-59
2023/05/06 03:58:13;;;;;;;7.53;2.08;;;;;;;10.88;39.06;100019.47;4842769;28;20049;-59
2023/05/06 04:00:43;;;;;;;7.18;1.75;;;;;;;10.95;39.18;100015.84;4830139;28;20042;-59
2023/05/06 04:03:14;;;;;;;2.55;1.77;;;;;;;11.23;39.18;100016.97;4844613;28;20049;-60
2023/05/06 04:05:44;;;;;;;2.65;1.85;;;;;;;11.22;38.82;100003.91;4846175;28;20058;-60
2023/05/06 04:08:15;;;;;;;6.65;2.47;;;;;;;10.63;38.53;99918.09;4845470;28;20054;-61
2023/05/06 04:10:48;;;;;;;3.42;1.63;;;;;;;10.99;37.75;99991.34;4845052;28;20050;-59
2023/05/06 04:13:18;;;;;;;3.78;2.15;;;;;;;11.02;38.51;100015.66;4839510;28;20069;-60
2023/05/06 04:15:50;;;;;;;2.50;1.88;;;;;;;10.88;39.31;99968.06;4846146;28;20212;-60
2023/05/06 04:18:21;;;;;;;3.10;1.90;;;;;;;11.20;38.95;100006.53;4845183;28;20476;-60
2023/05/06 04:20:51;;;;;;;8.18;2.05;;;;;;;11.25;38.66;99992.50;4847372;28;20056;-59
2023/05/06 04:23:22;;;;;;;22.05;2.60;;;;;;;11.13;39.41;99994.53;4846984;28;20427;-60
2023/05/06 04:25:54;;;;;;;4.22;1.77;;;;;;;10.94;39.17;99967.06;4844958;28;20507;-60
2023/05/06 04:28:25;;;;;;;10.88;2.08;;;;;;;11.04;39.11;99984.28;4846249;28;20042;-59
2023/05/06 04:30:55;;;;;;;9.93;2.33;;;;;;;10.70;38.99;99932.72;4861273;28;20237;-59
2023/05/06 04:33:26;;;;;;;10.32;2.20;;;;;;;10.97;39.79;100003.59;4844452;28;20498;-59
2023/05/06 04:35:56;;;;;;;4.63;1.83;;;;;;;10.90;40.00;99996.78;4845214;28;20058;-58
2023/05/06 04:38:30;;;;;;;4.03;1.80;;;;;;;10.75;39.69;99992.75;4836751;28;20444;-60
2023/05/06 04:41:02;;;;;;;8.93;2.55;;;;;;;10.60;39.84;99993.94;4846103;28;20703;-59
2023/05/06 04:43:33;;;;;;;12.45;2.50;;;;;;;10.70;40.22;99990.22;4847592;28;20591;-59
2023/05/06 04:46:03;;;;;;;11.38;2.15;;;;;;;10.84;39.90;99976.88;4858600;28;20070;-59
2023/05/06 04:48:34;;;;;;;8.15;2.00;;;;;;;11.20;39.89;100001.31;4844551;28;20084;-60
2023/05/06 04:51:05;;;;;;;15.35;3.05;;;;;;;11.36;40.91;99964.34;4846378;28;20054;-60
2023/05/06 04:53:36;;;;;;;16.38;2.53;;;;;;;11.88;40.65;99983.97;4838673;28;20145;-59
2023/05/06 04:56:08;;;;;;;7.45;2.28;;;;;;;12.08;39.35;99992.19;4845869;28;20065;-60
2023/05/06 04:58:39;;;;;;;7.53;2.70;;;;;;;11.95;38.97;99982.91;4823240;28;21446;-59
2023/05/06 05:01:10;;;;;;;9.02;2.30;;;;;;;11.34;39.76;99956.53;4847645;28;20054;-59
2023/05/06 05:03:41;;;;;;;5.60;2.40;;;;;;;11.26;40.08;99988.97;4829235;28;20057;-59
2023/05/06 05:06:12;;;;;;;7.82;1.95;;;;;;;11.22;39.30;99983.84;4843529;28;20062;-59
2023/05/06 05:08:42;;;;;;;8.05;2.13;;;;;;;11.17;39.75;99985.69;4844559;28;20061;-59
2023/05/06 05:11:15;;;;;;;7.25;2.28;;;;;;;11.13;39.66;99991.03;4845705;28;20124;-60
2023/05/06 05:13:45;;;;;;;6.72;2.53;;;;;;;11.25;39.97;99992.50;4845875;28;20814;-59
2023/05/06 05:16:16;;;;;;;16.42;3.78;;;;;;;11.41;42.21;99962.47;4845218;28;20061;-60
2023/05/06 05:18:47;;;;;;;12.65;3.88;;;;;;;11.76;43.85;99984.28;4845146;28;22577;-59
2023/05/06 05:21:17;;;;;;;14.45;4.45;;;;;;;11.51;44.19;99979.66;4843360;28;20054;-60
2023/05/06 05:23:48;;;;;;;12.80;4.88;;;;;;;11.66;44.83;99994.97;4850303;28;20061;-60
2023/05/06 05:26:20;;;;;;;14.85;4.28;;;;;;;11.84;44.72;99995.41;4848059;28;20062;-60
2023/05/06 05:28:51;;;;;;;13.60;3.92;;;;;;;11.96;44.35;99997.75;4844966;28;20076;-60
2023/05/06 05:31:21;;;;;;;10.52;4.03;;;;;;;11.64;43.17;99991.53;4844293;28;20060;-60
2023/05/06 05:33:52;;;;;;;11.95;4.40;;;;;;;11.48;44.02;99995.41;4844411;28;20050;-60
2023/05/06 05:36:26;;;;;;;13.40;4.20;;;;;;;11.54;44.19;100000.53;4845563;28;20799;-59
2023/05/06 05:38:57;;;;;;;14.70;4.40;;;;;;;11.56;44.15;99993.50;4846357;28;20050;-59
2023/05/06 05:41:36;;;;;;;8.02;4.20;;;;;;;11.82;44.71;99999.81;4840383;28;20418;-59
2023/05/06 05:44:07;;;;;;;14.65;4.35;;;;;;;11.84;43.99;99982.31;4847856;28;20050;-58
2023/05/06 05:46:38;;;;;;;9.30;3.80;;;;;;;11.73;42.33;99989.59;4828286;28;20048;-59
2023/05/06 05:49:08;;;;;;;10.07;3.50;;;;;;;11.41;42.43;99979.03;4843245;28;20097;-59
2023/05/06 05:51:39;;;;;;;9.27;4.07;;;;;;;11.50;43.55;99996.25;4830655;28;20564;-59
2023/05/06 05:54:09;;;;;;;15.20;6.85;;;;;;;11.41;43.83;99958.09;4846602;28;20140;-59
2023/05/06 05:56:41;;;;;;;13.80;8.13;;;;;;;11.28;44.41;99908.72;4860927;28;20069;-59
2023/05/06 05:59:12;;;;;;;122.55;51.20;;;;;;;12.00;44.06;99994.13;4828672;28;20065;-59
2023/05/06 06:01:42;;;;;;;90.53;38.60;;;;;;;12.03;44.11;99988.84;4849570;28;20046;-59
2023/05/06 06:04:13;;;;;;;116.05;46.33;;;;;;;12.05;44.40;99994.88;4852627;28;20111;-59
2023/05/06 06:06:43;;;;;;;22.27;7.72;;;;;;;12.05;44.77;100007.97;4857527;28;20054;-59
2023/05/06 06:09:15;;;;;;;32.33;12.93;;;;;;;11.85;44.96;99984.03;4849828;28;20050;-59
2023/05/06 06:11:47;;;;;;;60.67;20.30;;;;;;;11.85;45.38;99997.13;4850072;28;20049;-59
2023/05/06 06:14:18;;;;;;;72.47;19.98;;;;;;;11.79;45.28;100002.53;4843327;28;20493;-59
2023/05/06 06:17:02;;;;;;;24.98;9.90;;;;;;;11.60;45.25;99997.75;4851573;28;20122;-60
2023/05/06 06:19:35;;;;;;;85.88;26.10;;;;;;;11.56;45.71;100003.97;4837995;28;20057;-59
2023/05/06 06:22:05;;;;;;;44.67;17.08;;;;;;;11.48;46.10;100005.03;4843542;28;20054;-59
2023/05/06 06:24:36;;;;;;;69.60;29.73;;;;;;;11.33;46.48;100006.25;4831890;28;20058;-59
2023/05/06 06:27:08;;;;;;;47.13;21.05;;;;;;;11.70;46.75;100026.31;4848620;28;20065;-59
2023/05/06 06:29:39;;;;;;;40.78;16.67;;;;;;;12.18;46.71;100029.47;4840623;28;20521;-59
2023/05/06 06:32:09;;;;;;;16.40;4.35;;;;;;;12.72;45.63;100027.97;4849624;28;20113;-60
2023/05/06 06:34:40;;;;;;;13.45;4.13;;;;;;;13.09;44.95;100024.25;4859888;28;20069;-60
2023/05/06 06:37:11;;;;;;;34.13;9.45;;;;;;;13.16;44.34;100031.91;4850053;28;20108;-60
2023/05/06 06:39:42;;;;;;;16.25;5.55;;;;;;;12.97;43.28;100024.63;4832228;28;20062;-60
2023/05/06 06:42:14;;;;;;;16.40;5.78;;;;;;;12.64;43.35;100027.34;4845984;28;20053;-59
2023/05/06 06:44:45;;;;;;;26.30;11.73;;;;;;;12.82;44.88;100033.81;4843681;28;20450;-59
2023/05/06 06:47:16;;;;;;;19.80;8.95;;;;;;;12.95;43.50;100033.41;4838650;28;20486;-59
2023/05/06 06:49:46;;;;;;;20.67;7.50;;;;;;;12.93;43.32;100018.63;4848381;28;20057;-61
2023/05/06 06:52:17;;;;;;;19.02;8.50;;;;;;;12.95;43.19;100030.78;4856527;28;20057;-60
2023/05/06 06:54:47;;;;;;;25.20;5.00;;;;;;;12.81;43.65;100019.84;4853864;28;20064;-60
2023/05/06 06:57:20;;;;;;;14.52;4.63;;;;;;;12.87;42.83;100014.41;4854077;28;20039;-57
2023/05/06 06:59:52;;;;;;;12.77;4.57;;;;;;;12.93;43.56;100018.63;4849354;28;20053;-58
2023/05/06 07:02:23;;;;;;;31.88;4.63;;;;;;;12.60;43.55;99962.78;4846675;28;20061;-58
2023/05/06 07:04:53;;;;;;;17.02;3.92;;;;;;;12.86;43.34;100028.44;4826489;28;20043;-58
2023/05/06 07:07:24;;;;;;;10.95;3.92;;;;;;;12.71;43.16;100034.13;4848131;28;20045;-57
2023/05/06 07:12:43;;;;;;;17.38;8.18;;;;;;;12.56;43.21;100030.19;4840090;28;20591;-60
2023/05/06 07:15:14;;;;;;;25.83;7.50;;;;;;;12.29;43.90;100042.28;4853061;28;20707;-60
2023/05/06 07:17:44;;;;;;;22.15;7.63;;;;;;;12.24;44.09;100044.16;4836799;28;20061;-60
2023/05/06 07:20:15;;;;;;;14.07;5.30;;;;;;;12.21;44.02;100049.50;4840111;28;20050;-60
2023/05/06 07:22:48;;;;;;;12.73;3.92;;;;;;;12.14;44.17;100054.03;4830716;28;21279;-60
2023/05/06 07:25:18;;;;;;;27.50;5.47;;;;;;;12.07;44.66;100048.06;4823862;28;20400;-60
2023/05/06 07:27:51;;;;;;;16.70;4.88;;;;;;;12.08;45.00;100041.94;4848456;28;20140;-60
2023/05/06 07:30:21;;;;;;;24.58;6.65;;;;;;;12.15;44.83;100047.00;4850717;28;20062;-60
2023/05/06 07:32:52;;;;;;;24.45;4.38;;;;;;;12.10;44.47;100049.75;4856914;28;20053;-61
2023/05/06 07:35:22;;;;;;;13.38;5.35;;;;;;;12.26;44.61;100047.59;4837597;28;20136;-61
2023/05/06 07:37:53;;;;;;;24.98;10.32;;;;;;;12.30;44.68;100055.34;4848543;28;20062;-59
2023/05/06 07:40:24;;;;;;;16.52;4.57;;;;;;;12.15;44.30;100049.63;4848051;28;20055;-59
2023/05/06 07:42:56;;;;;;;40.58;14.27;;;;;;;11.96;44.28;100060.59;4847492;28;20050;-59
2023/05/06 07:45:26;;;;;;;60.90;19.13;;;;;;;12.00;45.04;100056.97;4845446;28;20046;-61
2023/05/06 07:47:57;;;;;;;42.47;13.30;;;;;;;12.02;45.11;100076.13;4847324;28;21013;-59
2023/05/06 07:50:27;;;;;;;23.38;8.85;;;;;;;11.98;44.42;100069.28;4836793;28;20876;-60
2023/05/06 07:52:58;;;;;;;16.15;6.40;;;;;;;11.90;44.49;100076.44;4851826;28;21569;-60
2023/05/06 07:55:30;;;;;;;16.05;5.25;;;;;;;11.85;44.75;100073.91;4847756;28;20054;-60
2023/05/06 07:58:05;;;;;;;23.15;5.20;;;;;;;11.81;44.69;100076.66;4842380;28;20125;-59
2023/05/06 08:00:35;;;;;;;19.88;7.45;;;;;;;11.82;45.44;100083.59;4853197;28;20050;-59
2023/05/06 08:03:06;;;;;;;13.70;5.32;;;;;;;11.74;44.86;100085.56;4846632;28;20108;-59
2023/05/06 08:05:37;;;;;;;24.13;8.43;;;;;;;11.59;44.67;100092.84;4842842;28;20157;-61
2023/05/06 08:08:07;;;;;;;24.50;11.02;;;;;;;11.59;45.23;100081.53;4849639;28;20145;-62
2023/05/06 08:10:38;;;;;;;30.38;13.15;;;;;;;11.52;44.96;100091.28;4839128;28;20050;-62
2023/05/06 08:13:10;;;;;;;36.47;15.02;;;;;;;11.45;45.10;100089.69;4851551;28;20060;-62
2023/05/06 08:15:41;;;;;;;55.45;22.83;;;;;;;11.44;45.52;100082.75;4845791;28;20054;-62
2023/05/06 08:18:12;;;;;;;28.27;5.60;;;;;;;11.50;45.20;100082.59;4855525;28;20041;-60
2023/05/06 08:20:51;;;;;;;19.38;6.90;;;;;;;11.49;45.81;100093.97;4851324;28;20054;-60
2023/05/06 08:23:21;;;;;;;21.20;8.48;;;;;;;11.44;45.55;100094.06;4837880;28;20386;-62
2023/05/06 08:25:52;;;;;;;24.63;7.43;;;;;;;11.40;45.26;100092.41;4859907;28;20389;-60
2023/05/06 08:28:24;;;;;;;21.73;8.75;;;;;;;11.45;45.40;100105.38;4846050;28;20077;-61
2023/05/06 08:30:55;;;;;;;7.78;4.28;;;;;;;11.26;45.16;100104.06;4847583;28;20057;-60
2023/05/06 08:33:26;;;;;;;15.98;4.82;;;;;;;11.19;45.46;100093.75;4837609;28;20058;-60
2023/05/06 08:35:56;;;;;;;39.15;17.38;;;;;;;11.13;45.91;100093.91;4841869;28;20054;-60
2023/05/06 08:38:27;;;;;;;22.70;11.15;;;;;;;11.14;46.09;100106.06;4842941;28;20058;-59
2023/05/06 08:41:00;;;;;;;21.70;8.32;;;;;;;10.93;46.01;100096.03;4849011;28;20113;-60
2023/05/06 08:43:35;;;;;;;35.58;16.55;;;;;;;10.85;46.63;100084.88;4832243;28;20756;-59
2023/05/06 08:46:06;;;;;;;40.95;16.63;;;;;;;10.83;46.78;100095.38;4829804;28;20074;-59
2023/05/06 08:48:37;;;;;;;54.75;22.85;;;;;;;10.74;46.72;100099.03;4828801;28;20066;-60
2023/05/06 08:51:08;;;;;;;38.33;14.82;;;;;;;10.72;46.92;100103.44;4838907;28;20058;-57
2023/05/06 08:53:43;;;;;;;28.13;11.55;;;;;;;10.72;47.01;100108.66;4846529;28;20057;-58
2023/05/06 08:56:15;;;;;;;55.78;22.38;;;;;;;10.32;47.05;100069.38;4845774;28;20112;-57
2023/05/06 08:58:49;;;;;;;44.85;15.95;;;;;;;10.55;47.27;100121.19;4832229;28;20046;-57
2023/05/06 09:01:20;;;;;;;31.85;11.38;;;;;;;10.45;47.30;100124.84;4845420;28;20161;-58
2023/05/06 09:03:52;;;;;;;21.05;6.82;;;;;;;10.39;47.47;100109.31;4845681;28;20068;-58
2023/05/06 09:06:27;;;;;;;17.65;6.65;;;;;;;10.00;47.67;100075.13;4844945;28;20504;-59
2023/05/06 09:08:57;;;;;;;14.77;6.07;;;;;;;10.08;48.08;100115.00;4843080;28;20050;-60
2023/05/06 09:11:30;;;;;;;16.10;5.78;;;;;;;9.92;47.98;100112.66;4852285;28;20059;-60
2023/05/06 09:14:20;;;;;;;15.73;4.35;;;;;;;9.82;47.99;100129.34;4855299;28;20050;-60
2023/05/06 09:16:51;;;;;;;;;;;;;;;9.73;48.39;100134.69;4845066;28;20133;-59
2023/05/06 09:19:23;;;;;;;11.52;4.45;;;;;;;9.54;48.40;100130.66;4835051;28;19956;-59
2023/05/06 09:21:55;;;;;;;12.27;5.47;;;;;;;9.39;48.71;100145.63;4844207;28;20475;-58
2023/05/06 09:24:26;;;;;;;12.55;4.47;;;;;;;9.22;48.51;100142.38;4845108;28;20054;-57
2023/05/06 09:26:57;;;;;;;20.73;6.63;;;;;;;8.43;48.73;100061.66;4844222;28;20073;-57
2023/05/06 09:29:29;;;;;;;17.52;6.53;;;;;;;8.59;49.49;100146.56;4841125;28;20080;-58
2023/05/06 09:32:09;;;;;;;19.23;6.85;;;;;;;8.36;49.85;100135.44;4845690;28;20057;-59
2023/05/06 09:34:40;;;;;;;12.98;5.03;;;;;;;8.19;50.45;100157.31;4836007;28;20085;-60
2023/05/06 09:37:11;;;;;;;15.52;5.97;;;;;;;8.02;50.54;100147.91;4845709;28;20058;-59
2023/05/06 09:39:41;;;;;;;14.18;4.68;;;;;;;7.89;51.29;100152.34;4844800;28;20385;-60
2023/05/06 09:42:13;;;;;;;21.80;6.07;;;;;;;7.75;51.32;100144.63;4844536;28;20058;-60
2023/05/06 09:44:45;;;;;;;13.48;6.47;;;;;;;7.59;51.53;100156.88;4838330;28;20096;-59
2023/05/06 09:47:16;;;;;;;13.35;5.38;;;;;;;7.48;51.95;100156.06;4846620;28;20108;-59
2023/05/06 09:49:46;;;;;;;21.52;4.97;;;;;;;7.56;52.47;100180.28;4846676;28;20050;-59
2023/05/06 09:52:18;;;;;;;10.63;4.30;;;;;;;7.57;52.19;100176.81;4845203;28;20085;-60
2023/05/06 09:54:50;;;;;;;11.63;4.00;;;;;;;7.53;51.76;100169.91;4839907;28;20050;-60
2023/05/06 09:57:23;;;;;;;12.27;4.43;;;;;;;7.44;52.35;100169.94;4845914;28;20054;-60
2023/05/06 09:59:56;;;;;;;12.85;3.80;;;;;;;7.26;52.39;100160.50;4845779;28;20138;-60
2023/05/06 10:02:28;;;;;;;13.05;5.07;;;;;;;7.21;52.98;100177.84;4844990;28;20081;-59
2023/05/06 10:05:00;;;;;;;17.45;5.30;;;;;;;7.04;53.17;100180.50;4838169;28;20062;-60
2023/05/06 10:07:34;;;;;;;23.55;8.05;;;;;;;7.01;53.75;100196.09;4846303;28;20054;-59
2023/05/06 10:10:07;;;;;;;25.23;10.85;;;;;;;6.87;53.67;100189.22;4846571;28;20042;-59
2023/05/06 10:12:38;;;;;;;21.33;11.57;;;;;;;6.81;54.19;100194.41;4842084;28;20050;-59
2023/05/06 10:15:11;;;;;;;30.88;18.25;;;;;;;6.78;54.29;100199.63;4847964;28;20229;-58
2023/05/06 10:17:46;;;;;;;24.27;14.20;;;;;;;6.67;54.31;100222.16;4847709;28;20154;-59
2023/05/06 10:20:18;;;;;;;18.30;9.77;;;;;;;6.56;54.40;100231.66;4845234;28;20051;-59
2023/05/06 10:23:00;;;;;;;15.10;6.10;;;;;;;6.50;54.88;100226.50;4837058;28;20478;-59
2023/05/06 10:25:41;;;;;;;10.98;4.82;;;;;;;6.47;54.86;100220.44;4865556;28;20136;-59
2023/05/06 10:28:15;;;;;;;11.30;4.93;;;;;;;6.46;55.30;100234.28;4836742;28;20053;-59
2023/05/06 10:31:01;;;;;;;15.70;6.55;;;;;;;6.31;55.69;100234.25;4818408;28;21171;-59
2023/05/06 10:33:32;;;;;;;11.50;4.97;;;;;;;6.26;55.61;100236.00;4844937;28;20174;-59
2023/05/06 10:36:14;;;;;;;18.60;5.70;;;;;;;6.26;55.83;100259.34;4845644;28;20042;-59
2023/05/06 10:38:48;;;;;;;22.85;9.88;;;;;;;6.18;56.39;100263.66;4848372;28;20072;-59
2023/05/06 10:41:22;;;;;;;25.38;8.00;;;;;;;6.01;56.67;100272.28;4841434;28;20061;-59
2023/05/06 10:43:58;;;;;;;17.48;7.72;;;;;;;5.90;56.78;100267.91;4843389;28;20057;-58
2023/05/06 10:46:36;;;;;;;20.65;8.30;;;;;;;5.79;57.38;100268.75;4840894;28;20060;-58
2023/05/06 10:49:19;;;;;;;20.40;6.63;;;;;;;5.74;57.92;100287.72;4822772;28;20065;-58
2023/05/06 10:52:09;;;;;;;12.93;5.95;;;;;;;5.46;57.75;100291.94;4823169;28;20082;-58
2023/05/06 10:54:52;;;;;;;23.27;6.40;;;;;;;5.28;59.13;100292.69;4846656;28;20054;-58
2023/05/06 10:57:31;;;;;;;19.35;7.35;;;;;;;5.29;59.80;100284.94;4839477;28;20045;-59
2023/05/06 11:00:02;;;;;;;22.20;6.30;;;;;;;5.36;59.75;100291.00;4837261;28;20081;-58
2023/05/06 11:02:39;;;;;;;19.95;6.95;;;;;;;5.37;59.86;100292.75;4845008;28;20054;-58
2023/05/06 11:05:11;;;;;;;15.38;6.15;;;;;;;5.21;59.80;100291.78;4847631;28;20065;-58
2023/05/06 11:07:43;;;;;;;25.23;6.30;;;;;;;5.18;60.21;100300.41;4847062;28;20050;-58
2023/05/06 11:10:15;;;;;;;21.27;6.47;;;;;;;5.03;60.39;100304.63;4846786;28;20060;-58
2023/05/06 11:12:48;;;;;;;20.80;7.75;;;;;;;4.85;61.43;100308.81;4848667;28;20073;-58
2023/05/06 11:15:26;;;;;;;17.50;8.35;;;;;;;4.71;62.17;100300.94;4837553;28;20453;-58
2023/05/06 11:18:00;;;;;;;19.20;8.68;;;;;;;4.79;62.06;100307.91;4845438;28;20038;-59
2023/05/06 11:20:32;;;;;;;22.85;7.35;;;;;;;4.71;62.13;100316.47;4847710;28;20054;-58
2023/05/06 11:23:03;;;;;;;16.08;7.45;;;;;;;4.59;62.48;100316.34;4847373;28;20058;-58
2023/05/06 11:25:42;;;;;;;25.48;9.40;;;;;;;4.51;62.86;100320.59;4847147;28;20054;-58
2023/05/06 11:28:14;;;;;;;29.00;9.88;;;;;;;4.38;63.07;100318.75;4837047;28;20100;-58
2023/05/06 11:30:56;;;;;;;15.10;7.22;;;;;;;4.27;63.41;100316.94;4848056;28;20062;-58
2023/05/06 11:33:33;;;;;;;15.10;7.72;;;;;;;4.15;63.74;100327.16;4837399;28;20135;-58
2023/05/06 11:36:05;;;;;;;27.08;8.98;;;;;;;3.86;63.91;100338.03;4837041;28;20057;-58
2023/05/06 11:38:44;;;;;;;19.13;9.80;;;;;;;3.71;64.57;100343.00;4847020;28;20064;-58
2023/05/06 11:41:16;;;;;;;18.38;7.35;;;;;;;3.58;64.65;100331.66;4827514;28;20050;-58
2023/05/06 11:43:49;;;;;;;12.40;5.50;;;;;;;3.49;65.47;100346.16;4847268;28;22586;-58
2023/05/06 11:46:21;;;;;;;12.52;5.22;;;;;;;2.85;66.37;100263.50;4838165;28;20133;-58
2023/05/06 11:48:54;;;;;;;15.65;6.80;;;;;;;3.46;66.55;100368.50;4849122;28;20054;-58
2023/05/06 11:51:26;;;;;;;14.30;6.82;;;;;;;3.43;66.84;100373.66;4843690;28;20145;-58